Aberdeen, Ohio
Current Conditions -  °F | °C
As of 11:15 AM on Monday 26 Jan 2015 (Local Time) from KFGX Reporting Station
Overcast Overcast  
Wind Chill: 11°   Ceiling: 1200
Heat Index: 22°   Visibility: 10mi
Dew Point: 18°   Wind: 12mph
Humidity: 85%   Direction: 320°NW
Pressure: 29.9"   Gusts: 20mph
Location:  38.66°N, 83.76°W
Report Text: KFGX 261615Z AUTO 32010G17KT 10SM OVC012 M05/M08 A2990 RMK AO2 T10551077
Loading
Personal Weather Stations






























Interactive Weather Map New forecast layout! Learn more

10-Day Weather Forecast

Advertisements
Track Severe Weather on mobile